sensor_id;sensor_type;location;lat;lon;timestamp;P1;durP1;ratioP1;P2;durP2;ratioP2
44670;SDS011;48397;53.016;-2.260;2023-06-24T00:01:51;2.88;;;1.80;;
44670;SDS011;48397;53.016;-2.260;2023-06-24T00:04:19;3.03;;;1.60;;
44670;SDS011;48397;53.016;-2.260;2023-06-24T00:06:47;4.47;;;1.73;;
44670;SDS011;48397;53.016;-2.260;2023-06-24T00:11:43;4.20;;;1.90;;
44670;SDS011;48397;53.016;-2.260;2023-06-24T00:16:38;6.65;;;2.10;;
44670;SDS011;48397;53.016;-2.260;2023-06-24T00:19:06;5.63;;;1.98;;
44670;SDS011;48397;53.016;-2.260;2023-06-24T00:21:35;5.00;;;2.50;;
44670;SDS011;48397;53.016;-2.260;2023-06-24T00:24:04;4.68;;;1.83;;
44670;SDS011;48397;53.016;-2.260;2023-06-24T00:29:00;5.10;;;2.50;;
44670;SDS011;48397;53.016;-2.260;2023-06-24T00:31:27;3.92;;;2.15;;
44670;SDS011;48397;53.016;-2.260;2023-06-24T00:33:55;4.28;;;2.13;;
44670;SDS011;48397;53.016;-2.260;2023-06-24T00:38:51;7.95;;;2.33;;
44670;SDS011;48397;53.016;-2.260;2023-06-24T00:41:18;5.13;;;2.05;;
44670;SDS011;48397;53.016;-2.260;2023-06-24T00:43:47;3.97;;;2.20;;
44670;SDS011;48397;53.016;-2.260;2023-06-24T00:51:10;3.60;;;2.00;;
44670;SDS011;48397;53.016;-2.260;2023-06-24T00:56:06;3.40;;;1.85;;
44670;SDS011;48397;53.016;-2.260;2023-06-24T00:58:34;5.20;;;2.20;;
44670;SDS011;48397;53.016;-2.260;2023-06-24T01:01:04;4.88;;;2.30;;
44670;SDS011;48397;53.016;-2.260;2023-06-24T01:03:36;5.30;;;2.30;;
44670;SDS011;48397;53.016;-2.260;2023-06-24T01:06:04;3.80;;;2.28;;
44670;SDS011;48397;53.016;-2.260;2023-06-24T01:13:27;4.70;;;2.33;;
44670;SDS011;48397;53.016;-2.260;2023-06-24T01:15:55;4.07;;;2.42;;
44670;SDS011;48397;53.016;-2.260;2023-06-24T01:21:12;4.43;;;2.20;;
44670;SDS011;48397;53.016;-2.260;2023-06-24T01:24:06;3.85;;;1.90;;
44670;SDS011;48397;53.016;-2.260;2023-06-24T01:27:24;4.25;;;2.25;;
44670;SDS011;48397;53.016;-2.260;2023-06-24T01:32:46;4.82;;;2.25;;
44670;SDS011;48397;53.016;-2.260;2023-06-24T01:35:37;4.30;;;2.40;;
44670;SDS011;48397;53.016;-2.260;2023-06-24T01:38:08;5.15;;;2.13;;
44670;SDS011;48397;53.016;-2.260;2023-06-24T01:40:38;5.75;;;2.25;;
44670;SDS011;48397;53.016;-2.260;2023-06-24T01:43:10;5.20;;;2.35;;
44670;SDS011;48397;53.016;-2.260;2023-06-24T01:45:48;7.13;;;2.17;;
44670;SDS011;48397;53.016;-2.260;2023-06-24T01:48:19;4.55;;;2.38;;
44670;SDS011;48397;53.016;-2.260;2023-06-24T01:51:01;3.78;;;2.05;;
44670;SDS011;48397;53.016;-2.260;2023-06-24T01:53:42;5.32;;;2.40;;
44670;SDS011;48397;53.016;-2.260;2023-06-24T01:56:15;7.85;;;2.78;;
44670;SDS011;48397;53.016;-2.260;2023-06-24T01:58:46;4.60;;;2.30;;
44670;SDS011;48397;53.016;-2.260;2023-06-24T02:01:15;5.40;;;2.58;;
44670;SDS011;48397;53.016;-2.260;2023-06-24T02:03:43;4.43;;;2.50;;
44670;SDS011;48397;53.016;-2.260;2023-06-24T02:06:12;5.57;;;2.70;;
44670;SDS011;48397;53.016;-2.260;2023-06-24T02:08:42;4.03;;;2.33;;
44670;SDS011;48397;53.016;-2.260;2023-06-24T02:11:14;5.82;;;2.70;;
44670;SDS011;48397;53.016;-2.260;2023-06-24T02:13:42;4.20;;;2.45;;
44670;SDS011;48397;53.016;-2.260;2023-06-24T02:16:15;6.20;;;2.40;;
44670;SDS011;48397;53.016;-2.260;2023-06-24T02:18:44;3.65;;;2.30;;
44670;SDS011;48397;53.016;-2.260;2023-06-24T02:21:16;6.95;;;2.60;;
44670;SDS011;48397;53.016;-2.260;2023-06-24T02:23:46;4.97;;;2.40;;
44670;SDS011;48397;53.016;-2.260;2023-06-24T02:26:15;5.50;;;2.70;;
44670;SDS011;48397;53.016;-2.260;2023-06-24T02:28:44;5.18;;;2.33;;
44670;SDS011;48397;53.016;-2.260;2023-06-24T02:31:13;4.03;;;2.15;;
44670;SDS011;48397;53.016;-2.260;2023-06-24T02:33:42;5.60;;;2.75;;
44670;SDS011;48397;53.016;-2.260;2023-06-24T02:36:11;4.15;;;2.53;;
44670;SDS011;48397;53.016;-2.260;2023-06-24T02:41:06;6.10;;;2.67;;
44670;SDS011;48397;53.016;-2.260;2023-06-24T02:43:34;6.70;;;2.90;;
44670;SDS011;48397;53.016;-2.260;2023-06-24T02:46:03;5.10;;;2.63;;
44670;SDS011;48397;53.016;-2.260;2023-06-24T02:48:33;5.10;;;2.90;;
44670;SDS011;48397;53.016;-2.260;2023-06-24T02:51:04;4.47;;;2.42;;
44670;SDS011;48397;53.016;-2.260;2023-06-24T02:53:33;6.03;;;2.78;;
44670;SDS011;48397;53.016;-2.260;2023-06-24T02:56:02;5.25;;;2.35;;
44670;SDS011;48397;53.016;-2.260;2023-06-24T02:58:32;6.30;;;2.83;;
44670;SDS011;48397;53.016;-2.260;2023-06-24T03:01:09;6.00;;;2.72;;
44670;SDS011;48397;53.016;-2.260;2023-06-24T03:03:48;3.95;;;2.45;;
44670;SDS011;48397;53.016;-2.260;2023-06-24T03:06:17;6.43;;;2.25;;
44670;SDS011;48397;53.016;-2.260;2023-06-24T03:08:47;7.53;;;2.83;;
44670;SDS011;48397;53.016;-2.260;2023-06-24T03:11:19;5.75;;;2.47;;
44670;SDS011;48397;53.016;-2.260;2023-06-24T03:13:47;4.03;;;2.42;;
44670;SDS011;48397;53.016;-2.260;2023-06-24T03:16:26;4.97;;;2.88;;
44670;SDS011;48397;53.016;-2.260;2023-06-24T03:19:20;7.03;;;3.17;;
44670;SDS011;48397;53.016;-2.260;2023-06-24T03:21:49;4.97;;;2.63;;
44670;SDS011;48397;53.016;-2.260;2023-06-24T03:24:16;4.90;;;2.80;;
44670;SDS011;48397;53.016;-2.260;2023-06-24T03:26:48;6.60;;;2.80;;
44670;SDS011;48397;53.016;-2.260;2023-06-24T03:29:19;6.30;;;2.92;;
44670;SDS011;48397;53.016;-2.260;2023-06-24T03:31:59;5.35;;;2.80;;
44670;SDS011;48397;53.016;-2.260;2023-06-24T03:34:27;6.10;;;2.65;;
44670;SDS011;48397;53.016;-2.260;2023-06-24T03:36:55;7.22;;;3.20;;
44670;SDS011;48397;53.016;-2.260;2023-06-24T03:39:24;7.00;;;3.17;;
44670;SDS011;48397;53.016;-2.260;2023-06-24T03:41:52;6.00;;;3.05;;
44670;SDS011;48397;53.016;-2.260;2023-06-24T03:46:48;6.63;;;3.30;;
44670;SDS011;48397;53.016;-2.260;2023-06-24T03:51:44;4.82;;;3.00;;
44670;SDS011;48397;53.016;-2.260;2023-06-24T03:54:11;6.60;;;3.10;;
44670;SDS011;48397;53.016;-2.260;2023-06-24T03:56:39;6.22;;;3.42;;
44670;SDS011;48397;53.016;-2.260;2023-06-24T03:59:07;5.28;;;3.22;;
44670;SDS011;48397;53.016;-2.260;2023-06-24T04:04:03;6.95;;;3.25;;
44670;SDS011;48397;53.016;-2.260;2023-06-24T04:06:32;5.65;;;3.28;;
44670;SDS011;48397;53.016;-2.260;2023-06-24T04:11:28;8.52;;;4.00;;
44670;SDS011;48397;53.016;-2.260;2023-06-24T04:13:59;5.10;;;3.13;;
44670;SDS011;48397;53.016;-2.260;2023-06-24T04:16:27;5.68;;;3.35;;
44670;SDS011;48397;53.016;-2.260;2023-06-24T04:18:55;5.88;;;3.42;;
44670;SDS011;48397;53.016;-2.260;2023-06-24T04:21:23;6.20;;;3.30;;
44670;SDS011;48397;53.016;-2.260;2023-06-24T04:23:51;9.10;;;3.80;;
44670;SDS011;48397;53.016;-2.260;2023-06-24T04:26:19;6.28;;;3.60;;
44670;SDS011;48397;53.016;-2.260;2023-06-24T04:31:15;5.90;;;4.00;;
44670;SDS011;48397;53.016;-2.260;2023-06-24T04:33:43;15.10;;;3.78;;
44670;SDS011;48397;53.016;-2.260;2023-06-24T04:36:11;5.95;;;3.90;;
44670;SDS011;48397;53.016;-2.260;2023-06-24T04:38:39;7.20;;;4.05;;
44670;SDS011;48397;53.016;-2.260;2023-06-24T04:41:08;7.80;;;4.30;;
44670;SDS011;48397;53.016;-2.260;2023-06-24T04:43:35;11.07;;;4.82;;
44670;SDS011;48397;53.016;-2.260;2023-06-24T04:48:31;8.52;;;5.05;;
44670;SDS011;48397;53.016;-2.260;2023-06-24T04:50:58;10.75;;;5.03;;
44670;SDS011;48397;53.016;-2.260;2023-06-24T04:53:26;7.65;;;4.07;;
44670;SDS011;48397;53.016;-2.260;2023-06-24T04:55:54;6.25;;;3.95;;
44670;SDS011;48397;53.016;-2.260;2023-06-24T04:58:21;11.27;;;4.32;;
44670;SDS011;48397;53.016;-2.260;2023-06-24T05:03:17;11.13;;;5.93;;
44670;SDS011;48397;53.016;-2.260;2023-06-24T05:05:44;7.70;;;4.72;;
44670;SDS011;48397;53.016;-2.260;2023-06-24T05:08:13;11.40;;;5.05;;
44670;SDS011;48397;53.016;-2.260;2023-06-24T05:10:40;9.65;;;5.18;;
44670;SDS011;48397;53.016;-2.260;2023-06-24T05:15:36;8.73;;;4.20;;
44670;SDS011;48397;53.016;-2.260;2023-06-24T05:18:04;7.93;;;4.53;;
44670;SDS011;48397;53.016;-2.260;2023-06-24T05:20:32;8.25;;;4.60;;
44670;SDS011;48397;53.016;-2.260;2023-06-24T05:23:00;9.50;;;4.65;;
44670;SDS011;48397;53.016;-2.260;2023-06-24T05:25:27;9.32;;;4.63;;
44670;SDS011;48397;53.016;-2.260;2023-06-24T05:27:55;9.75;;;4.80;;
44670;SDS011;48397;53.016;-2.260;2023-06-24T05:30:23;10.32;;;5.10;;
44670;SDS011;48397;53.016;-2.260;2023-06-24T05:32:50;8.45;;;4.75;;
44670;SDS011;48397;53.016;-2.260;2023-06-24T05:35:18;11.38;;;4.85;;
44670;SDS011;48397;53.016;-2.260;2023-06-24T05:37:46;6.70;;;4.40;;
44670;SDS011;48397;53.016;-2.260;2023-06-24T05:40:14;9.32;;;4.53;;
44670;SDS011;48397;53.016;-2.260;2023-06-24T05:42:42;8.50;;;4.97;;
44670;SDS011;48397;53.016;-2.260;2023-06-24T05:45:10;8.38;;;4.85;;
44670;SDS011;48397;53.016;-2.260;2023-06-24T05:47:38;8.57;;;4.68;;
44670;SDS011;48397;53.016;-2.260;2023-06-24T05:50:06;7.97;;;4.15;;
44670;SDS011;48397;53.016;-2.260;2023-06-24T05:52:34;9.75;;;4.70;;
44670;SDS011;48397;53.016;-2.260;2023-06-24T06:02:24;8.18;;;4.35;;
44670;SDS011;48397;53.016;-2.260;2023-06-24T06:04:52;6.72;;;4.60;;
44670;SDS011;48397;53.016;-2.260;2023-06-24T06:07:20;7.05;;;4.32;;
44670;SDS011;48397;53.016;-2.260;2023-06-24T06:09:48;8.63;;;4.70;;
44670;SDS011;48397;53.016;-2.260;2023-06-24T06:12:16;10.20;;;4.45;;
44670;SDS011;48397;53.016;-2.260;2023-06-24T06:14:44;7.88;;;4.65;;
44670;SDS011;48397;53.016;-2.260;2023-06-24T06:19:41;7.10;;;4.10;;
44670;SDS011;48397;53.016;-2.260;2023-06-24T06:22:08;8.32;;;4.70;;
44670;SDS011;48397;53.016;-2.260;2023-06-24T06:24:36;8.40;;;4.18;;
44670;SDS011;48397;53.016;-2.260;2023-06-24T06:27:09;6.78;;;3.70;;
44670;SDS011;48397;53.016;-2.260;2023-06-24T06:29:37;6.90;;;3.78;;
44670;SDS011;48397;53.016;-2.260;2023-06-24T06:32:05;9.23;;;4.43;;
44670;SDS011;48397;53.016;-2.260;2023-06-24T06:34:33;6.90;;;3.95;;
44670;SDS011;48397;53.016;-2.260;2023-06-24T06:39:29;7.95;;;3.53;;
44670;SDS011;48397;53.016;-2.260;2023-06-24T06:44:25;6.55;;;3.85;;
44670;SDS011;48397;53.016;-2.260;2023-06-24T06:46:53;10.38;;;4.15;;
44670;SDS011;48397;53.016;-2.260;2023-06-24T06:51:49;7.07;;;3.85;;
44670;SDS011;48397;53.016;-2.260;2023-06-24T06:54:19;6.25;;;3.70;;
44670;SDS011;48397;53.016;-2.260;2023-06-24T06:56:47;7.00;;;4.15;;
44670;SDS011;48397;53.016;-2.260;2023-06-24T06:59:17;7.63;;;4.03;;
44670;SDS011;48397;53.016;-2.260;2023-06-24T07:01:44;6.13;;;3.72;;
44670;SDS011;48397;53.016;-2.260;2023-06-24T07:06:40;6.95;;;4.03;;
44670;SDS011;48397;53.016;-2.260;2023-06-24T07:11:35;4.40;;;2.90;;
44670;SDS011;48397;53.016;-2.260;2023-06-24T07:18:58;5.78;;;3.15;;
44670;SDS011;48397;53.016;-2.260;2023-06-24T07:21:26;5.00;;;2.90;;
44670;SDS011;48397;53.016;-2.260;2023-06-24T07:28:49;4.68;;;2.75;;
44670;SDS011;48397;53.016;-2.260;2023-06-24T07:31:35;4.68;;;2.60;;
44670;SDS011;48397;53.016;-2.260;2023-06-24T07:34:04;4.82;;;2.47;;
44670;SDS011;48397;53.016;-2.260;2023-06-24T07:36:32;5.75;;;2.40;;
44670;SDS011;48397;53.016;-2.260;2023-06-24T07:39:00;3.83;;;2.40;;
44670;SDS011;48397;53.016;-2.260;2023-06-24T07:41:27;4.47;;;2.50;;
44670;SDS011;48397;53.016;-2.260;2023-06-24T07:43:55;3.75;;;2.20;;
44670;SDS011;48397;53.016;-2.260;2023-06-24T07:48:51;5.15;;;2.22;;
44670;SDS011;48397;53.016;-2.260;2023-06-24T07:51:19;4.25;;;2.20;;
44670;SDS011;48397;53.016;-2.260;2023-06-24T07:53:47;3.97;;;1.90;;
44670;SDS011;48397;53.016;-2.260;2023-06-24T07:56:15;3.50;;;1.60;;
44670;SDS011;48397;53.016;-2.260;2023-06-24T08:01:10;2.72;;;1.60;;
44670;SDS011;48397;53.016;-2.260;2023-06-24T08:03:38;2.92;;;1.80;;
44670;SDS011;48397;53.016;-2.260;2023-06-24T08:06:06;2.90;;;1.48;;
44670;SDS011;48397;53.016;-2.260;2023-06-24T08:08:34;5.20;;;1.60;;
44670;SDS011;48397;53.016;-2.260;2023-06-24T08:11:03;2.95;;;1.50;;
44670;SDS011;48397;53.016;-2.260;2023-06-24T08:13:31;2.22;;;1.45;;
44670;SDS011;48397;53.016;-2.260;2023-06-24T08:18:26;2.38;;;1.40;;
44670;SDS011;48397;53.016;-2.260;2023-06-24T08:20:54;2.85;;;1.40;;
44670;SDS011;48397;53.016;-2.260;2023-06-24T08:28:22;2.17;;;1.60;;
44670;SDS011;48397;53.016;-2.260;2023-06-24T08:33:17;3.58;;;1.48;;
44670;SDS011;48397;53.016;-2.260;2023-06-24T08:35:46;2.13;;;1.20;;
44670;SDS011;48397;53.016;-2.260;2023-06-24T08:38:14;3.10;;;1.48;;
44670;SDS011;48397;53.016;-2.260;2023-06-24T08:43:10;3.10;;;1.45;;
44670;SDS011;48397;53.016;-2.260;2023-06-24T08:45:39;2.13;;;1.00;;
44670;SDS011;48397;53.016;-2.260;2023-06-24T08:48:07;1.90;;;1.40;;
44670;SDS011;48397;53.016;-2.260;2023-06-24T08:50:36;3.20;;;1.20;;
44670;SDS011;48397;53.016;-2.260;2023-06-24T08:53:10;1.63;;;1.05;;
44670;SDS011;48397;53.016;-2.260;2023-06-24T08:55:40;1.75;;;1.20;;
44670;SDS011;48397;53.016;-2.260;2023-06-24T08:58:11;1.98;;;1.20;;
44670;SDS011;48397;53.016;-2.260;2023-06-24T09:00:40;1.30;;;1.10;;
44670;SDS011;48397;53.016;-2.260;2023-06-24T09:03:09;2.40;;;1.38;;
44670;SDS011;48397;53.016;-2.260;2023-06-24T09:05:38;1.75;;;1.20;;
44670;SDS011;48397;53.016;-2.260;2023-06-24T09:08:06;4.10;;;1.30;;
44670;SDS011;48397;53.016;-2.260;2023-06-24T09:10:35;2.00;;;1.30;;
44670;SDS011;48397;53.016;-2.260;2023-06-24T09:13:04;1.85;;;1.33;;
44670;SDS011;48397;53.016;-2.260;2023-06-24T09:15:37;2.20;;;1.23;;
44670;SDS011;48397;53.016;-2.260;2023-06-24T09:18:06;1.73;;;0.95;;
44670;SDS011;48397;53.016;-2.260;2023-06-24T09:20:34;2.78;;;1.20;;
44670;SDS011;48397;53.016;-2.260;2023-06-24T09:23:06;1.48;;;1.10;;
44670;SDS011;48397;53.016;-2.260;2023-06-24T09:25:34;1.90;;;1.00;;
44670;SDS011;48397;53.016;-2.260;2023-06-24T09:28:03;1.95;;;1.10;;
44670;SDS011;48397;53.016;-2.260;2023-06-24T09:30:32;1.98;;;1.30;;
44670;SDS011;48397;53.016;-2.260;2023-06-24T09:35:27;2.67;;;1.20;;
44670;SDS011;48397;53.016;-2.260;2023-06-24T09:38:02;2.85;;;1.30;;
44670;SDS011;48397;53.016;-2.260;2023-06-24T09:40:31;1.73;;;1.20;;
44670;SDS011;48397;53.016;-2.260;2023-06-24T09:43:03;3.45;;;1.38;;
44670;SDS011;48397;53.016;-2.260;2023-06-24T09:48:00;3.20;;;1.35;;
44670;SDS011;48397;53.016;-2.260;2023-06-24T09:50:29;2.20;;;1.20;;
44670;SDS011;48397;53.016;-2.260;2023-06-24T09:52:58;1.50;;;1.20;;
44670;SDS011;48397;53.016;-2.260;2023-06-24T09:55:27;2.25;;;1.40;;
44670;SDS011;48397;53.016;-2.260;2023-06-24T09:57:55;3.28;;;1.45;;
44670;SDS011;48397;53.016;-2.260;2023-06-24T10:00:25;1.80;;;1.20;;
44670;SDS011;48397;53.016;-2.260;2023-06-24T10:02:53;2.67;;;1.52;;
44670;SDS011;48397;53.016;-2.260;2023-06-24T10:05:26;3.75;;;1.60;;
44670;SDS011;48397;53.016;-2.260;2023-06-24T10:07:54;2.22;;;1.50;;
44670;SDS011;48397;53.016;-2.260;2023-06-24T10:10:22;2.90;;;1.60;;
44670;SDS011;48397;53.016;-2.260;2023-06-24T10:15:17;2.88;;;1.40;;
44670;SDS011;48397;53.016;-2.260;2023-06-24T10:17:45;1.90;;;1.35;;
44670;SDS011;48397;53.016;-2.260;2023-06-24T10:20:13;4.70;;;1.70;;
44670;SDS011;48397;53.016;-2.260;2023-06-24T10:22:50;2.20;;;1.48;;
44670;SDS011;48397;53.016;-2.260;2023-06-24T10:25:18;3.05;;;1.60;;
44670;SDS011;48397;53.016;-2.260;2023-06-24T10:27:50;3.55;;;1.90;;
44670;SDS011;48397;53.016;-2.260;2023-06-24T10:30:21;3.25;;;1.60;;
44670;SDS011;48397;53.016;-2.260;2023-06-24T10:32:55;3.50;;;1.70;;
44670;SDS011;48397;53.016;-2.260;2023-06-24T10:37:59;2.60;;;1.70;;
44670;SDS011;48397;53.016;-2.260;2023-06-24T10:40:35;3.55;;;2.00;;
44670;SDS011;48397;53.016;-2.260;2023-06-24T10:43:25;2.92;;;1.65;;
44670;SDS011;48397;53.016;-2.260;2023-06-24T10:45:57;2.35;;;1.65;;
44670;SDS011;48397;53.016;-2.260;2023-06-24T10:48:28;2.20;;;1.70;;
44670;SDS011;48397;53.016;-2.260;2023-06-24T10:53:24;3.30;;;1.80;;
44670;SDS011;48397;53.016;-2.260;2023-06-24T10:55:56;3.65;;;1.65;;
44670;SDS011;48397;53.016;-2.260;2023-06-24T10:58:25;2.92;;;1.40;;
44670;SDS011;48397;53.016;-2.260;2023-06-24T11:03:22;2.90;;;1.65;;
44670;SDS011;48397;53.016;-2.260;2023-06-24T11:05:51;2.50;;;1.35;;
44670;SDS011;48397;53.016;-2.260;2023-06-24T11:10:47;2.72;;;1.73;;
44670;SDS011;48397;53.016;-2.260;2023-06-24T11:13:15;2.78;;;1.60;;
44670;SDS011;48397;53.016;-2.260;2023-06-24T11:15:47;2.65;;;1.45;;
44670;SDS011;48397;53.016;-2.260;2023-06-24T11:18:15;3.47;;;1.92;;
44670;SDS011;48397;53.016;-2.260;2023-06-24T11:25:42;2.50;;;1.65;;
44670;SDS011;48397;53.016;-2.260;2023-06-24T11:28:14;3.40;;;1.85;;
44670;SDS011;48397;53.016;-2.260;2023-06-24T11:30:48;10.20;;;2.50;;
44670;SDS011;48397;53.016;-2.260;2023-06-24T11:33:28;2.72;;;1.65;;
44670;SDS011;48397;53.016;-2.260;2023-06-24T11:35:56;2.72;;;2.00;;
44670;SDS011;48397;53.016;-2.260;2023-06-24T11:38:24;3.72;;;2.08;;
44670;SDS011;48397;53.016;-2.260;2023-06-24T11:40:59;2.10;;;1.50;;
44670;SDS011;48397;53.016;-2.260;2023-06-24T11:43:27;5.07;;;3.70;;
44670;SDS011;48397;53.016;-2.260;2023-06-24T11:45:56;5.15;;;3.78;;
44670;SDS011;48397;53.016;-2.260;2023-06-24T11:48:27;2.67;;;1.73;;
44670;SDS011;48397;53.016;-2.260;2023-06-24T11:50:56;2.85;;;1.73;;
44670;SDS011;48397;53.016;-2.260;2023-06-24T11:53:30;2.75;;;2.00;;
44670;SDS011;48397;53.016;-2.260;2023-06-24T11:56:09;5.25;;;2.00;;
44670;SDS011;48397;53.016;-2.260;2023-06-24T11:58:37;4.78;;;3.35;;
44670;SDS011;48397;53.016;-2.260;2023-06-24T12:01:06;2.28;;;1.60;;
44670;SDS011;48397;53.016;-2.260;2023-06-24T12:03:35;2.15;;;1.50;;
44670;SDS011;48397;53.016;-2.260;2023-06-24T12:06:03;3.38;;;1.60;;
44670;SDS011;48397;53.016;-2.260;2023-06-24T12:08:30;7.65;;;6.45;;
44670;SDS011;48397;53.016;-2.260;2023-06-24T12:11:18;2.72;;;1.50;;
44670;SDS011;48397;53.016;-2.260;2023-06-24T12:13:46;3.42;;;1.60;;
44670;SDS011;48397;53.016;-2.260;2023-06-24T12:16:14;2.63;;;1.42;;
44670;SDS011;48397;53.016;-2.260;2023-06-24T12:18:42;3.42;;;1.63;;
44670;SDS011;48397;53.016;-2.260;2023-06-24T12:21:10;3.20;;;1.52;;
44670;SDS011;48397;53.016;-2.260;2023-06-24T12:23:38;3.50;;;1.48;;
44670;SDS011;48397;53.016;-2.260;2023-06-24T12:26:05;2.88;;;1.50;;
44670;SDS011;48397;53.016;-2.260;2023-06-24T12:28:33;3.03;;;1.40;;
44670;SDS011;48397;53.016;-2.260;2023-06-24T12:31:01;2.05;;;1.30;;
44670;SDS011;48397;53.016;-2.260;2023-06-24T12:33:29;3.75;;;1.70;;
44670;SDS011;48397;53.016;-2.260;2023-06-24T12:35:58;2.15;;;1.45;;
44670;SDS011;48397;53.016;-2.260;2023-06-24T12:38:26;2.50;;;2.05;;
44670;SDS011;48397;53.016;-2.260;2023-06-24T12:40:54;1.80;;;1.40;;
44670;SDS011;48397;53.016;-2.260;2023-06-24T12:43:22;2.80;;;1.45;;
44670;SDS011;48397;53.016;-2.260;2023-06-24T12:45:49;2.38;;;1.42;;
44670;SDS011;48397;53.016;-2.260;2023-06-24T12:48:18;2.85;;;1.98;;
44670;SDS011;48397;53.016;-2.260;2023-06-24T12:50:46;2.58;;;1.80;;
44670;SDS011;48397;53.016;-2.260;2023-06-24T12:53:15;3.78;;;1.70;;
44670;SDS011;48397;53.016;-2.260;2023-06-24T12:55:43;3.85;;;2.05;;
44670;SDS011;48397;53.016;-2.260;2023-06-24T12:58:13;2.58;;;1.70;;
44670;SDS011;48397;53.016;-2.260;2023-06-24T13:00:42;3.15;;;1.85;;
44670;SDS011;48397;53.016;-2.260;2023-06-24T13:03:10;3.47;;;2.10;;
44670;SDS011;48397;53.016;-2.260;2023-06-24T13:05:37;3.70;;;1.90;;
44670;SDS011;48397;53.016;-2.260;2023-06-24T13:08:06;2.13;;;1.50;;
44670;SDS011;48397;53.016;-2.260;2023-06-24T13:10:34;3.30;;;1.83;;
44670;SDS011;48397;53.016;-2.260;2023-06-24T13:13:02;2.08;;;1.40;;
44670;SDS011;48397;53.016;-2.260;2023-06-24T13:15:30;2.30;;;1.60;;
44670;SDS011;48397;53.016;-2.260;2023-06-24T13:17:58;4.05;;;1.92;;
44670;SDS011;48397;53.016;-2.260;2023-06-24T13:20:26;3.22;;;2.08;;
44670;SDS011;48397;53.016;-2.260;2023-06-24T13:22:54;3.42;;;1.83;;
44670;SDS011;48397;53.016;-2.260;2023-06-24T13:25:22;2.22;;;1.67;;
44670;SDS011;48397;53.016;-2.260;2023-06-24T13:27:52;3.80;;;2.00;;
44670;SDS011;48397;53.016;-2.260;2023-06-24T13:30:20;5.28;;;2.03;;
44670;SDS011;48397;53.016;-2.260;2023-06-24T13:32:48;3.22;;;1.85;;
44670;SDS011;48397;53.016;-2.260;2023-06-24T13:35:16;2.85;;;1.65;;
44670;SDS011;48397;53.016;-2.260;2023-06-24T13:37:45;3.70;;;2.00;;
44670;SDS011;48397;53.016;-2.260;2023-06-24T13:40:13;3.00;;;1.77;;
44670;SDS011;48397;53.016;-2.260;2023-06-24T13:42:40;2.40;;;1.73;;
44670;SDS011;48397;53.016;-2.260;2023-06-24T13:45:08;3.25;;;2.00;;
44670;SDS011;48397;53.016;-2.260;2023-06-24T13:47:37;3.42;;;2.00;;
44670;SDS011;48397;53.016;-2.260;2023-06-24T13:50:05;4.43;;;2.10;;
44670;SDS011;48397;53.016;-2.260;2023-06-24T13:52:33;2.38;;;1.73;;
44670;SDS011;48397;53.016;-2.260;2023-06-24T13:55:00;3.63;;;1.80;;
44670;SDS011;48397;53.016;-2.260;2023-06-24T13:57:28;3.28;;;2.17;;
44670;SDS011;48397;53.016;-2.260;2023-06-24T13:59:56;4.63;;;1.95;;
44670;SDS011;48397;53.016;-2.260;2023-06-24T14:02:25;4.35;;;2.13;;
44670;SDS011;48397;53.016;-2.260;2023-06-24T14:04:53;3.38;;;2.10;;
44670;SDS011;48397;53.016;-2.260;2023-06-24T14:07:21;4.65;;;2.22;;
44670;SDS011;48397;53.016;-2.260;2023-06-24T14:09:49;2.88;;;2.00;;
44670;SDS011;48397;53.016;-2.260;2023-06-24T14:12:17;2.65;;;1.90;;
44670;SDS011;48397;53.016;-2.260;2023-06-24T14:14:45;5.82;;;2.03;;
44670;SDS011;48397;53.016;-2.260;2023-06-24T14:17:12;2.85;;;1.85;;
44670;SDS011;48397;53.016;-2.260;2023-06-24T14:19:40;4.75;;;2.10;;
44670;SDS011;48397;53.016;-2.260;2023-06-24T14:22:08;4.13;;;2.33;;
44670;SDS011;48397;53.016;-2.260;2023-06-24T14:24:36;3.60;;;2.03;;
44670;SDS011;48397;53.016;-2.260;2023-06-24T14:27:05;4.03;;;2.15;;
44670;SDS011;48397;53.016;-2.260;2023-06-24T14:29:33;3.33;;;1.90;;
44670;SDS011;48397;53.016;-2.260;2023-06-24T14:32:01;3.10;;;2.00;;
44670;SDS011;48397;53.016;-2.260;2023-06-24T14:34:29;3.40;;;2.35;;
44670;SDS011;48397;53.016;-2.260;2023-06-24T14:36:57;2.83;;;2.00;;
44670;SDS011;48397;53.016;-2.260;2023-06-24T14:39:25;4.55;;;2.40;;
44670;SDS011;48397;53.016;-2.260;2023-06-24T14:41:57;3.90;;;1.85;;
44670;SDS011;48397;53.016;-2.260;2023-06-24T14:44:24;3.65;;;2.30;;
44670;SDS011;48397;53.016;-2.260;2023-06-24T14:46:52;3.42;;;2.03;;
44670;SDS011;48397;53.016;-2.260;2023-06-24T14:49:23;3.50;;;2.15;;
44670;SDS011;48397;53.016;-2.260;2023-06-24T14:51:51;3.80;;;2.13;;
44670;SDS011;48397;53.016;-2.260;2023-06-24T14:54:19;3.65;;;2.03;;
44670;SDS011;48397;53.016;-2.260;2023-06-24T14:56:47;3.60;;;2.40;;
44670;SDS011;48397;53.016;-2.260;2023-06-24T14:59:15;5.50;;;2.85;;
44670;SDS011;48397;53.016;-2.260;2023-06-24T15:01:43;3.70;;;2.38;;
44670;SDS011;48397;53.016;-2.260;2023-06-24T15:04:11;4.15;;;2.55;;
44670;SDS011;48397;53.016;-2.260;2023-06-24T15:06:39;4.03;;;2.30;;
44670;SDS011;48397;53.016;-2.260;2023-06-24T15:09:07;4.80;;;2.20;;
44670;SDS011;48397;53.016;-2.260;2023-06-24T15:11:34;3.63;;;2.47;;
44670;SDS011;48397;53.016;-2.260;2023-06-24T15:14:03;5.18;;;2.45;;
44670;SDS011;48397;53.016;-2.260;2023-06-24T15:16:31;4.70;;;2.30;;
44670;SDS011;48397;53.016;-2.260;2023-06-24T15:18:59;4.55;;;2.42;;
44670;SDS011;48397;53.016;-2.260;2023-06-24T15:21:27;4.38;;;2.58;;
44670;SDS011;48397;53.016;-2.260;2023-06-24T15:24:03;4.88;;;2.13;;
44670;SDS011;48397;53.016;-2.260;2023-06-24T15:26:31;5.60;;;2.60;;
44670;SDS011;48397;53.016;-2.260;2023-06-24T15:28:59;3.85;;;2.45;;
44670;SDS011;48397;53.016;-2.260;2023-06-24T15:31:27;4.93;;;2.40;;
44670;SDS011;48397;53.016;-2.260;2023-06-24T15:33:55;7.70;;;3.55;;
44670;SDS011;48397;53.016;-2.260;2023-06-24T15:36:23;4.15;;;2.55;;
44670;SDS011;48397;53.016;-2.260;2023-06-24T15:38:55;3.40;;;2.35;;
44670;SDS011;48397;53.016;-2.260;2023-06-24T15:41:25;4.47;;;2.45;;
44670;SDS011;48397;53.016;-2.260;2023-06-24T15:43:53;4.05;;;2.15;;
44670;SDS011;48397;53.016;-2.260;2023-06-24T15:46:21;5.38;;;2.40;;
44670;SDS011;48397;53.016;-2.260;2023-06-24T15:48:50;4.47;;;2.58;;
44670;SDS011;48397;53.016;-2.260;2023-06-24T15:51:18;4.38;;;2.35;;
44670;SDS011;48397;53.016;-2.260;2023-06-24T15:53:46;4.18;;;2.42;;
44670;SDS011;48397;53.016;-2.260;2023-06-24T15:56:15;4.93;;;2.53;;
44670;SDS011;48397;53.016;-2.260;2023-06-24T15:58:43;5.88;;;2.03;;
44670;SDS011;48397;53.016;-2.260;2023-06-24T16:01:11;5.43;;;2.42;;
44670;SDS011;48397;53.016;-2.260;2023-06-24T16:03:40;3.85;;;2.00;;
44670;SDS011;48397;53.016;-2.260;2023-06-24T16:06:09;3.85;;;2.08;;
44670;SDS011;48397;53.016;-2.260;2023-06-24T16:08:37;6.13;;;2.92;;
44670;SDS011;48397;53.016;-2.260;2023-06-24T16:11:05;6.40;;;2.58;;
44670;SDS011;48397;53.016;-2.260;2023-06-24T16:13:34;2.80;;;1.98;;
44670;SDS011;48397;53.016;-2.260;2023-06-24T16:16:02;5.43;;;2.20;;
44670;SDS011;48397;53.016;-2.260;2023-06-24T16:18:30;2.90;;;1.83;;
44670;SDS011;48397;53.016;-2.260;2023-06-24T16:20:58;3.30;;;1.80;;
44670;SDS011;48397;53.016;-2.260;2023-06-24T16:23:26;3.10;;;1.90;;
44670;SDS011;48397;53.016;-2.260;2023-06-24T16:25:54;3.30;;;2.03;;
44670;SDS011;48397;53.016;-2.260;2023-06-24T16:28:22;4.10;;;2.25;;
44670;SDS011;48397;53.016;-2.260;2023-06-24T16:34:03;4.00;;;2.00;;
44670;SDS011;48397;53.016;-2.260;2023-06-24T16:36:31;3.25;;;2.03;;
44670;SDS011;48397;53.016;-2.260;2023-06-24T16:38:59;4.72;;;2.10;;
44670;SDS011;48397;53.016;-2.260;2023-06-24T16:41:27;3.10;;;1.85;;
44670;SDS011;48397;53.016;-2.260;2023-06-24T16:43:54;3.97;;;1.95;;
44670;SDS011;48397;53.016;-2.260;2023-06-24T16:46:22;3.20;;;1.90;;
44670;SDS011;48397;53.016;-2.260;2023-06-24T16:48:50;4.80;;;2.10;;
44670;SDS011;48397;53.016;-2.260;2023-06-24T16:51:18;2.70;;;1.90;;